sensor_id;sensor_type;location;lat;lon;timestamp;P1;durP1;ratioP1;P2;durP2;ratioP2
9364;SDS011;4722;49.340;9.800;2023-07-20T00:01:06;3.63;;;1.35;;
9364;SDS011;4722;49.340;9.800;2023-07-20T00:03:32;2.75;;;1.15;;
9364;SDS011;4722;49.340;9.800;2023-07-20T00:05:58;2.33;;;1.13;;
9364;SDS011;4722;49.340;9.800;2023-07-20T00:08:24;2.03;;;1.17;;
9364;SDS011;4722;49.340;9.800;2023-07-20T00:10:50;6.43;;;1.58;;
9364;SDS011;4722;49.340;9.800;2023-07-20T00:13:16;3.55;;;1.70;;
9364;SDS011;4722;49.340;9.800;2023-07-20T00:15:43;3.22;;;1.35;;
9364;SDS011;4722;49.340;9.800;2023-07-20T00:18:09;6.78;;;1.67;;
9364;SDS011;4722;49.340;9.800;2023-07-20T00:20:35;2.33;;;1.38;;
9364;SDS011;4722;49.340;9.800;2023-07-20T00:23:01;2.35;;;1.40;;
9364;SDS011;4722;49.340;9.800;2023-07-20T00:25:27;3.38;;;1.00;;
9364;SDS011;4722;49.340;9.800;2023-07-20T00:27:53;3.20;;;1.20;;
9364;SDS011;4722;49.340;9.800;2023-07-20T00:30:19;3.22;;;1.33;;
9364;SDS011;4722;49.340;9.800;2023-07-20T00:32:45;2.78;;;1.50;;
9364;SDS011;4722;49.340;9.800;2023-07-20T00:35:11;5.70;;;1.60;;
9364;SDS011;4722;49.340;9.800;2023-07-20T00:37:37;4.18;;;1.40;;
9364;SDS011;4722;49.340;9.800;2023-07-20T00:40:03;1.90;;;1.10;;
9364;SDS011;4722;49.340;9.800;2023-07-20T00:42:29;5.47;;;1.08;;
9364;SDS011;4722;49.340;9.800;2023-07-20T00:44:55;1.55;;;1.02;;
9364;SDS011;4722;49.340;9.800;2023-07-20T00:47:21;2.95;;;1.10;;
9364;SDS011;4722;49.340;9.800;2023-07-20T00:49:47;3.90;;;1.23;;
9364;SDS011;4722;49.340;9.800;2023-07-20T00:52:13;2.20;;;1.08;;
9364;SDS011;4722;49.340;9.800;2023-07-20T00:54:40;3.40;;;1.48;;
9364;SDS011;4722;49.340;9.800;2023-07-20T00:57:06;2.35;;;1.38;;
9364;SDS011;4722;49.340;9.800;2023-07-20T00:59:33;2.22;;;1.20;;
9364;SDS011;4722;49.340;9.800;2023-07-20T01:01:59;3.90;;;1.30;;
9364;SDS011;4722;49.340;9.800;2023-07-20T01:04:25;4.50;;;1.60;;
9364;SDS011;4722;49.340;9.800;2023-07-20T01:07:03;2.75;;;1.20;;
9364;SDS011;4722;49.340;9.800;2023-07-20T01:09:34;2.35;;;1.10;;
9364;SDS011;4722;49.340;9.800;2023-07-20T01:12:05;2.60;;;1.50;;
9364;SDS011;4722;49.340;9.800;2023-07-20T01:14:37;2.55;;;1.17;;
9364;SDS011;4722;49.340;9.800;2023-07-20T01:17:03;2.63;;;1.23;;
9364;SDS011;4722;49.340;9.800;2023-07-20T01:19:29;2.85;;;1.00;;
9364;SDS011;4722;49.340;9.800;2023-07-20T01:27:23;4.03;;;1.42;;
9364;SDS011;4722;49.340;9.800;2023-07-20T01:33:00;4.18;;;1.10;;
9364;SDS011;4722;49.340;9.800;2023-07-20T01:35:28;4.63;;;1.33;;
9364;SDS011;4722;49.340;9.800;2023-07-20T01:37:55;2.53;;;1.52;;
9364;SDS011;4722;49.340;9.800;2023-07-20T01:40:22;3.25;;;1.42;;
9364;SDS011;4722;49.340;9.800;2023-07-20T01:42:50;2.55;;;1.33;;
9364;SDS011;4722;49.340;9.800;2023-07-20T01:45:16;5.05;;;1.45;;
9364;SDS011;4722;49.340;9.800;2023-07-20T01:47:42;5.95;;;1.08;;
9364;SDS011;4722;49.340;9.800;2023-07-20T01:50:08;5.13;;;1.52;;
9364;SDS011;4722;49.340;9.800;2023-07-20T01:52:34;3.33;;;1.73;;
9364;SDS011;4722;49.340;9.800;2023-07-20T01:55:00;4.85;;;1.35;;
9364;SDS011;4722;49.340;9.800;2023-07-20T01:57:26;2.30;;;1.35;;
9364;SDS011;4722;49.340;9.800;2023-07-20T01:59:52;5.78;;;1.50;;
9364;SDS011;4722;49.340;9.800;2023-07-20T02:02:18;3.67;;;1.27;;
9364;SDS011;4722;49.340;9.800;2023-07-20T02:04:45;2.88;;;1.42;;
9364;SDS011;4722;49.340;9.800;2023-07-20T02:07:11;5.55;;;1.67;;
9364;SDS011;4722;49.340;9.800;2023-07-20T02:09:37;4.60;;;1.13;;
9364;SDS011;4722;49.340;9.800;2023-07-20T02:12:03;5.05;;;1.33;;
9364;SDS011;4722;49.340;9.800;2023-07-20T02:14:29;4.00;;;1.10;;
9364;SDS011;4722;49.340;9.800;2023-07-20T02:16:55;2.83;;;1.10;;
9364;SDS011;4722;49.340;9.800;2023-07-20T02:19:24;8.32;;;1.50;;
9364;SDS011;4722;49.340;9.800;2023-07-20T02:21:50;3.70;;;1.02;;
9364;SDS011;4722;49.340;9.800;2023-07-20T02:24:16;4.07;;;1.48;;
9364;SDS011;4722;49.340;9.800;2023-07-20T02:26:42;2.85;;;1.35;;
9364;SDS011;4722;49.340;9.800;2023-07-20T02:29:08;4.10;;;1.10;;
9364;SDS011;4722;49.340;9.800;2023-07-20T02:31:36;2.35;;;1.13;;
9364;SDS011;4722;49.340;9.800;2023-07-20T02:34:02;8.63;;;1.30;;
9364;SDS011;4722;49.340;9.800;2023-07-20T02:36:28;3.00;;;1.15;;
9364;SDS011;4722;49.340;9.800;2023-07-20T02:38:54;3.45;;;1.25;;
9364;SDS011;4722;49.340;9.800;2023-07-20T02:41:20;2.63;;;1.40;;
9364;SDS011;4722;49.340;9.800;2023-07-20T02:43:46;3.78;;;1.48;;
9364;SDS011;4722;49.340;9.800;2023-07-20T02:46:12;2.70;;;1.48;;
9364;SDS011;4722;49.340;9.800;2023-07-20T02:48:38;3.28;;;1.55;;
9364;SDS011;4722;49.340;9.800;2023-07-20T02:51:04;2.25;;;1.40;;
9364;SDS011;4722;49.340;9.800;2023-07-20T02:53:30;3.08;;;1.40;;
9364;SDS011;4722;49.340;9.800;2023-07-20T02:55:56;4.25;;;0.95;;
9364;SDS011;4722;49.340;9.800;2023-07-20T02:58:22;4.15;;;1.33;;
9364;SDS011;4722;49.340;9.800;2023-07-20T03:00:48;2.88;;;1.00;;
9364;SDS011;4722;49.340;9.800;2023-07-20T03:03:14;3.63;;;1.75;;
9364;SDS011;4722;49.340;9.800;2023-07-20T03:05:40;2.67;;;1.13;;
9364;SDS011;4722;49.340;9.800;2023-07-20T03:08:06;5.22;;;1.40;;
9364;SDS011;4722;49.340;9.800;2023-07-20T03:10:32;2.13;;;1.10;;
9364;SDS011;4722;49.340;9.800;2023-07-20T03:13:03;1.50;;;0.88;;
9364;SDS011;4722;49.340;9.800;2023-07-20T03:15:29;7.30;;;1.08;;
9364;SDS011;4722;49.340;9.800;2023-07-20T03:17:56;8.70;;;1.23;;
9364;SDS011;4722;49.340;9.800;2023-07-20T03:20:23;2.63;;;0.93;;
9364;SDS011;4722;49.340;9.800;2023-07-20T03:22:49;3.15;;;1.13;;
9364;SDS011;4722;49.340;9.800;2023-07-20T03:25:15;4.75;;;1.08;;
9364;SDS011;4722;49.340;9.800;2023-07-20T03:27:42;2.83;;;1.25;;
9364;SDS011;4722;49.340;9.800;2023-07-20T03:30:08;3.17;;;1.05;;
9364;SDS011;4722;49.340;9.800;2023-07-20T03:32:34;4.88;;;1.15;;
9364;SDS011;4722;49.340;9.800;2023-07-20T03:35:00;2.10;;;0.98;;
9364;SDS011;4722;49.340;9.800;2023-07-20T03:37:26;2.28;;;1.13;;
9364;SDS011;4722;49.340;9.800;2023-07-20T03:39:52;4.53;;;0.93;;
9364;SDS011;4722;49.340;9.800;2023-07-20T03:42:18;2.72;;;1.05;;
9364;SDS011;4722;49.340;9.800;2023-07-20T03:44:44;3.08;;;0.85;;
9364;SDS011;4722;49.340;9.800;2023-07-20T03:47:10;2.15;;;0.93;;
9364;SDS011;4722;49.340;9.800;2023-07-20T03:49:36;5.07;;;1.25;;
9364;SDS011;4722;49.340;9.800;2023-07-20T03:52:02;4.75;;;0.80;;
9364;SDS011;4722;49.340;9.800;2023-07-20T03:54:30;4.13;;;1.58;;
9364;SDS011;4722;49.340;9.800;2023-07-20T03:56:56;3.33;;;1.10;;
9364;SDS011;4722;49.340;9.800;2023-07-20T03:59:23;3.30;;;1.10;;
9364;SDS011;4722;49.340;9.800;2023-07-20T04:01:49;3.70;;;1.35;;
9364;SDS011;4722;49.340;9.800;2023-07-20T04:04:15;3.72;;;1.35;;
9364;SDS011;4722;49.340;9.800;2023-07-20T04:06:41;1.95;;;1.10;;
9364;SDS011;4722;49.340;9.800;2023-07-20T04:09:09;2.80;;;1.13;;
9364;SDS011;4722;49.340;9.800;2023-07-20T04:11:35;1.85;;;0.93;;
9364;SDS011;4722;49.340;9.800;2023-07-20T04:14:01;3.58;;;1.35;;
9364;SDS011;4722;49.340;9.800;2023-07-20T04:16:27;5.70;;;1.13;;
9364;SDS011;4722;49.340;9.800;2023-07-20T04:18:54;2.55;;;1.10;;
9364;SDS011;4722;49.340;9.800;2023-07-20T04:21:21;6.22;;;1.02;;
9364;SDS011;4722;49.340;9.800;2023-07-20T04:23:47;3.58;;;1.13;;
9364;SDS011;4722;49.340;9.800;2023-07-20T04:26:13;2.78;;;1.33;;
9364;SDS011;4722;49.340;9.800;2023-07-20T04:28:39;4.07;;;1.17;;
9364;SDS011;4722;49.340;9.800;2023-07-20T04:31:10;10.38;;;1.30;;
9364;SDS011;4722;49.340;9.800;2023-07-20T04:33:40;2.40;;;1.50;;
9364;SDS011;4722;49.340;9.800;2023-07-20T04:36:06;1.92;;;1.10;;
9364;SDS011;4722;49.340;9.800;2023-07-20T04:38:32;3.17;;;1.10;;
9364;SDS011;4722;49.340;9.800;2023-07-20T04:40:58;4.90;;;1.38;;
9364;SDS011;4722;49.340;9.800;2023-07-20T04:43:24;2.45;;;1.23;;
9364;SDS011;4722;49.340;9.800;2023-07-20T04:45:50;3.92;;;1.00;;
9364;SDS011;4722;49.340;9.800;2023-07-20T04:48:16;1.13;;;0.60;;
9364;SDS011;4722;49.340;9.800;2023-07-20T04:50:45;2.28;;;0.90;;
9364;SDS011;4722;49.340;9.800;2023-07-20T04:53:11;2.20;;;1.10;;
9364;SDS011;4722;49.340;9.800;2023-07-20T04:55:40;3.05;;;1.05;;
9364;SDS011;4722;49.340;9.800;2023-07-20T04:58:11;3.35;;;1.40;;
9364;SDS011;4722;49.340;9.800;2023-07-20T05:00:37;2.63;;;0.90;;
9364;SDS011;4722;49.340;9.800;2023-07-20T05:03:03;1.00;;;0.70;;
9364;SDS011;4722;49.340;9.800;2023-07-20T05:05:30;2.53;;;1.13;;
9364;SDS011;4722;49.340;9.800;2023-07-20T05:07:57;2.58;;;1.08;;
9364;SDS011;4722;49.340;9.800;2023-07-20T05:10:23;3.10;;;1.10;;
9364;SDS011;4722;49.340;9.800;2023-07-20T05:12:49;4.72;;;1.63;;
9364;SDS011;4722;49.340;9.800;2023-07-20T05:15:15;4.75;;;1.55;;
9364;SDS011;4722;49.340;9.800;2023-07-20T05:17:41;3.15;;;1.52;;
9364;SDS011;4722;49.340;9.800;2023-07-20T05:20:07;2.88;;;1.33;;
9364;SDS011;4722;49.340;9.800;2023-07-20T05:22:37;7.70;;;1.20;;
9364;SDS011;4722;49.340;9.800;2023-07-20T05:25:07;5.38;;;1.38;;
9364;SDS011;4722;49.340;9.800;2023-07-20T05:27:33;3.40;;;1.27;;
9364;SDS011;4722;49.340;9.800;2023-07-20T05:29:59;1.75;;;0.77;;
9364;SDS011;4722;49.340;9.800;2023-07-20T05:32:25;4.50;;;1.38;;
9364;SDS011;4722;49.340;9.800;2023-07-20T05:34:54;2.03;;;0.90;;
9364;SDS011;4722;49.340;9.800;2023-07-20T05:37:20;1.88;;;0.88;;
9364;SDS011;4722;49.340;9.800;2023-07-20T05:39:46;3.35;;;1.48;;
9364;SDS011;4722;49.340;9.800;2023-07-20T05:42:12;4.05;;;1.05;;
9364;SDS011;4722;49.340;9.800;2023-07-20T05:44:39;2.95;;;0.85;;
9364;SDS011;4722;49.340;9.800;2023-07-20T05:47:05;3.53;;;1.15;;
9364;SDS011;4722;49.340;9.800;2023-07-20T05:49:31;2.45;;;1.40;;
9364;SDS011;4722;49.340;9.800;2023-07-20T05:51:57;2.00;;;0.98;;
9364;SDS011;4722;49.340;9.800;2023-07-20T05:54:26;3.65;;;0.60;;
9364;SDS011;4722;49.340;9.800;2023-07-20T05:56:52;1.75;;;0.75;;
9364;SDS011;4722;49.340;9.800;2023-07-20T05:59:18;6.85;;;1.77;;
9364;SDS011;4722;49.340;9.800;2023-07-20T06:01:44;2.65;;;1.00;;
9364;SDS011;4722;49.340;9.800;2023-07-20T06:04:10;3.50;;;1.33;;
9364;SDS011;4722;49.340;9.800;2023-07-20T06:06:36;2.42;;;1.02;;
9364;SDS011;4722;49.340;9.800;2023-07-20T06:09:02;3.08;;;1.50;;
9364;SDS011;4722;49.340;9.800;2023-07-20T06:11:29;2.55;;;0.80;;
9364;SDS011;4722;49.340;9.800;2023-07-20T06:13:56;2.42;;;0.90;;
9364;SDS011;4722;49.340;9.800;2023-07-20T06:16:21;3.47;;;1.35;;
9364;SDS011;4722;49.340;9.800;2023-07-20T06:18:47;1.52;;;0.85;;
9364;SDS011;4722;49.340;9.800;2023-07-20T06:21:13;2.85;;;0.95;;
9364;SDS011;4722;49.340;9.800;2023-07-20T06:23:40;1.65;;;0.73;;
9364;SDS011;4722;49.340;9.800;2023-07-20T06:26:06;1.90;;;1.05;;
9364;SDS011;4722;49.340;9.800;2023-07-20T06:28:32;2.22;;;0.80;;
9364;SDS011;4722;49.340;9.800;2023-07-20T06:30:59;4.70;;;0.88;;
9364;SDS011;4722;49.340;9.800;2023-07-20T06:33:25;1.38;;;0.63;;
9364;SDS011;4722;49.340;9.800;2023-07-20T06:35:51;4.57;;;0.88;;
9364;SDS011;4722;49.340;9.800;2023-07-20T06:38:18;2.33;;;0.80;;
9364;SDS011;4722;49.340;9.800;2023-07-20T06:40:45;2.03;;;0.82;;
9364;SDS011;4722;49.340;9.800;2023-07-20T06:43:11;2.05;;;0.80;;
9364;SDS011;4722;49.340;9.800;2023-07-20T06:45:37;4.40;;;0.68;;
9364;SDS011;4722;49.340;9.800;2023-07-20T06:48:03;2.65;;;1.00;;
9364;SDS011;4722;49.340;9.800;2023-07-20T06:50:29;1.90;;;0.65;;
9364;SDS011;4722;49.340;9.800;2023-07-20T06:52:55;0.82;;;0.38;;
9364;SDS011;4722;49.340;9.800;2023-07-20T06:55:21;2.10;;;1.00;;
9364;SDS011;4722;49.340;9.800;2023-07-20T06:57:46;4.60;;;0.70;;
9364;SDS011;4722;49.340;9.800;2023-07-20T07:00:12;1.25;;;0.57;;
9364;SDS011;4722;49.340;9.800;2023-07-20T07:02:38;3.20;;;1.00;;
9364;SDS011;4722;49.340;9.800;2023-07-20T07:05:04;1.55;;;0.68;;
9364;SDS011;4722;49.340;9.800;2023-07-20T07:07:30;1.92;;;0.68;;
9364;SDS011;4722;49.340;9.800;2023-07-20T07:09:56;2.33;;;0.47;;
9364;SDS011;4722;49.340;9.800;2023-07-20T07:12:22;1.73;;;0.43;;
9364;SDS011;4722;49.340;9.800;2023-07-20T07:14:48;2.17;;;0.70;;
9364;SDS011;4722;49.340;9.800;2023-07-20T07:17:14;1.60;;;0.50;;
9364;SDS011;4722;49.340;9.800;2023-07-20T07:19:40;1.13;;;0.50;;
9364;SDS011;4722;49.340;9.800;2023-07-20T07:22:07;1.23;;;0.45;;
9364;SDS011;4722;49.340;9.800;2023-07-20T07:24:32;1.13;;;0.40;;
9364;SDS011;4722;49.340;9.800;2023-07-20T07:27:01;1.55;;;0.40;;
9364;SDS011;4722;49.340;9.800;2023-07-20T07:29:27;2.65;;;0.60;;
9364;SDS011;4722;49.340;9.800;2023-07-20T07:31:53;1.85;;;0.55;;
9364;SDS011;4722;49.340;9.800;2023-07-20T07:34:19;1.95;;;0.50;;
9364;SDS011;4722;49.340;9.800;2023-07-20T07:36:45;2.28;;;0.40;;
9364;SDS011;4722;49.340;9.800;2023-07-20T07:39:10;1.70;;;0.50;;
9364;SDS011;4722;49.340;9.800;2023-07-20T07:41:36;2.50;;;0.35;;
9364;SDS011;4722;49.340;9.800;2023-07-20T07:44:02;2.28;;;0.38;;
9364;SDS011;4722;49.340;9.800;2023-07-20T07:46:28;3.30;;;0.70;;
9364;SDS011;4722;49.340;9.800;2023-07-20T07:48:54;1.38;;;0.57;;
9364;SDS011;4722;49.340;9.800;2023-07-20T07:51:19;1.42;;;0.40;;
9364;SDS011;4722;49.340;9.800;2023-07-20T07:53:46;2.30;;;0.52;;
9364;SDS011;4722;49.340;9.800;2023-07-20T07:56:14;2.80;;;0.80;;
9364;SDS011;4722;49.340;9.800;2023-07-20T07:58:39;1.10;;;0.57;;
9364;SDS011;4722;49.340;9.800;2023-07-20T08:01:05;3.28;;;0.60;;
9364;SDS011;4722;49.340;9.800;2023-07-20T08:03:31;7.20;;;0.52;;
9364;SDS011;4722;49.340;9.800;2023-07-20T08:05:58;4.28;;;0.40;;
9364;SDS011;4722;49.340;9.800;2023-07-20T08:08:25;3.72;;;0.45;;
9364;SDS011;4722;49.340;9.800;2023-07-20T08:10:54;3.08;;;1.13;;
9364;SDS011;4722;49.340;9.800;2023-07-20T08:13:20;6.82;;;0.50;;
9364;SDS011;4722;49.340;9.800;2023-07-20T08:15:49;1.50;;;0.40;;
9364;SDS011;4722;49.340;9.800;2023-07-20T08:18:19;1.17;;;0.55;;
9364;SDS011;4722;49.340;9.800;2023-07-20T08:20:45;3.53;;;0.90;;
9364;SDS011;4722;49.340;9.800;2023-07-20T08:23:12;2.28;;;0.50;;
9364;SDS011;4722;49.340;9.800;2023-07-20T08:25:38;1.55;;;0.75;;
9364;SDS011;4722;49.340;9.800;2023-07-20T08:28:08;1.45;;;0.60;;
9364;SDS011;4722;49.340;9.800;2023-07-20T08:30:45;1.33;;;0.75;;
9364;SDS011;4722;49.340;9.800;2023-07-20T08:33:13;2.03;;;0.63;;
9364;SDS011;4722;49.340;9.800;2023-07-20T08:35:39;1.98;;;0.60;;
9364;SDS011;4722;49.340;9.800;2023-07-20T08:38:05;2.47;;;0.45;;
9364;SDS011;4722;49.340;9.800;2023-07-20T08:40:32;2.65;;;0.68;;
9364;SDS011;4722;49.340;9.800;2023-07-20T08:42:59;3.53;;;2.58;;
9364;SDS011;4722;49.340;9.800;2023-07-20T08:45:26;2.78;;;1.15;;
9364;SDS011;4722;49.340;9.800;2023-07-20T08:47:53;5.95;;;1.02;;
9364;SDS011;4722;49.340;9.800;2023-07-20T08:50:22;1.70;;;1.00;;
9364;SDS011;4722;49.340;9.800;2023-07-20T08:52:48;1.83;;;0.63;;
9364;SDS011;4722;49.340;9.800;2023-07-20T08:55:15;1.42;;;0.68;;
9364;SDS011;4722;49.340;9.800;2023-07-20T08:57:41;2.17;;;0.73;;
9364;SDS011;4722;49.340;9.800;2023-07-20T09:00:11;1.13;;;0.57;;
9364;SDS011;4722;49.340;9.800;2023-07-20T09:02:38;1.33;;;0.57;;
9364;SDS011;4722;49.340;9.800;2023-07-20T09:05:10;1.08;;;0.47;;
9364;SDS011;4722;49.340;9.800;2023-07-20T09:07:35;2.22;;;0.55;;
9364;SDS011;4722;49.340;9.800;2023-07-20T09:10:02;2.70;;;0.68;;
9364;SDS011;4722;49.340;9.800;2023-07-20T09:12:34;1.30;;;0.50;;
9364;SDS011;4722;49.340;9.800;2023-07-20T09:15:01;2.13;;;0.57;;
9364;SDS011;4722;49.340;9.800;2023-07-20T09:17:27;4.93;;;1.30;;
9364;SDS011;4722;49.340;9.800;2023-07-20T09:19:53;7.00;;;1.10;;
9364;SDS011;4722;49.340;9.800;2023-07-20T09:22:19;1.00;;;0.28;;
9364;SDS011;4722;49.340;9.800;2023-07-20T09:24:45;1.90;;;0.50;;
9364;SDS011;4722;49.340;9.800;2023-07-20T09:27:11;1.02;;;0.52;;
9364;SDS011;4722;49.340;9.800;2023-07-20T09:29:50;1.40;;;0.40;;
9364;SDS011;4722;49.340;9.800;2023-07-20T09:32:19;1.48;;;0.50;;
9364;SDS011;4722;49.340;9.800;2023-07-20T09:34:46;0.80;;;0.40;;
9364;SDS011;4722;49.340;9.800;2023-07-20T09:37:12;1.15;;;0.68;;
9364;SDS011;4722;49.340;9.800;2023-07-20T09:39:45;1.48;;;0.50;;
9364;SDS011;4722;49.340;9.800;2023-07-20T09:44:38;1.38;;;0.35;;
9364;SDS011;4722;49.340;9.800;2023-07-20T09:47:04;1.85;;;0.60;;
9364;SDS011;4722;49.340;9.800;2023-07-20T09:49:30;4.53;;;0.70;;
9364;SDS011;4722;49.340;9.800;2023-07-20T09:51:57;2.30;;;0.45;;
9364;SDS011;4722;49.340;9.800;2023-07-20T09:54:25;1.40;;;0.52;;
9364;SDS011;4722;49.340;9.800;2023-07-20T09:56:52;5.38;;;0.82;;
9364;SDS011;4722;49.340;9.800;2023-07-20T09:59:18;1.52;;;0.73;;
9364;SDS011;4722;49.340;9.800;2023-07-20T10:01:44;3.58;;;0.40;;
9364;SDS011;4722;49.340;9.800;2023-07-20T10:04:12;2.05;;;0.50;;
9364;SDS011;4722;49.340;9.800;2023-07-20T10:06:42;2.83;;;0.40;;
9364;SDS011;4722;49.340;9.800;2023-07-20T10:09:12;2.15;;;0.43;;
9364;SDS011;4722;49.340;9.800;2023-07-20T10:11:40;2.65;;;0.40;;
9364;SDS011;4722;49.340;9.800;2023-07-20T10:14:19;1.70;;;1.13;;
9364;SDS011;4722;49.340;9.800;2023-07-20T10:16:51;1.60;;;0.55;;
9364;SDS011;4722;49.340;9.800;2023-07-20T10:19:23;1.33;;;0.55;;
9364;SDS011;4722;49.340;9.800;2023-07-20T10:22:00;1.65;;;0.60;;
9364;SDS011;4722;49.340;9.800;2023-07-20T10:24:28;2.08;;;0.60;;
9364;SDS011;4722;49.340;9.800;2023-07-20T10:26:55;1.80;;;0.88;;
9364;SDS011;4722;49.340;9.800;2023-07-20T10:29:21;2.03;;;0.50;;
9364;SDS011;4722;49.340;9.800;2023-07-20T10:31:48;1.40;;;0.50;;
9364;SDS011;4722;49.340;9.800;2023-07-20T10:34:14;2.15;;;0.73;;
9364;SDS011;4722;49.340;9.800;2023-07-20T10:36:43;1.02;;;0.70;;
9364;SDS011;4722;49.340;9.800;2023-07-20T10:42:07;1.23;;;0.47;;
9364;SDS011;4722;49.340;9.800;2023-07-20T10:44:33;3.35;;;0.40;;
9364;SDS011;4722;49.340;9.800;2023-07-20T10:46:59;0.75;;;0.40;;
9364;SDS011;4722;49.340;9.800;2023-07-20T10:49:26;1.00;;;0.30;;
9364;SDS011;4722;49.340;9.800;2023-07-20T10:51:56;1.08;;;0.20;;
9364;SDS011;4722;49.340;9.800;2023-07-20T10:56:50;0.55;;;0.20;;
9364;SDS011;4722;49.340;9.800;2023-07-20T10:59:19;1.15;;;0.40;;
9364;SDS011;4722;49.340;9.800;2023-07-20T11:02:08;0.50;;;0.30;;
9364;SDS011;4722;49.340;9.800;2023-07-20T11:04:37;3.22;;;0.35;;
9364;SDS011;4722;49.340;9.800;2023-07-20T11:07:04;1.63;;;0.40;;
9364;SDS011;4722;49.340;9.800;2023-07-20T11:09:33;0.77;;;0.40;;
9364;SDS011;4722;49.340;9.800;2023-07-20T11:12:12;1.25;;;0.52;;
9364;SDS011;4722;49.340;9.800;2023-07-20T11:17:12;0.73;;;0.30;;
9364;SDS011;4722;49.340;9.800;2023-07-20T11:19:38;5.05;;;0.43;;
9364;SDS011;4722;49.340;9.800;2023-07-20T11:22:05;4.43;;;0.63;;
9364;SDS011;4722;49.340;9.800;2023-07-20T11:24:37;1.15;;;0.50;;
9364;SDS011;4722;49.340;9.800;2023-07-20T11:27:04;1.52;;;0.60;;
9364;SDS011;4722;49.340;9.800;2023-07-20T11:29:30;3.33;;;0.82;;
9364;SDS011;4722;49.340;9.800;2023-07-20T11:31:56;3.25;;;0.82;;
9364;SDS011;4722;49.340;9.800;2023-07-20T11:34:22;4.90;;;0.40;;
9364;SDS011;4722;49.340;9.800;2023-07-20T11:36:49;2.70;;;0.50;;
9364;SDS011;4722;49.340;9.800;2023-07-20T11:39:19;3.50;;;0.52;;
9364;SDS011;4722;49.340;9.800;2023-07-20T11:41:48;1.60;;;0.50;;
9364;SDS011;4722;49.340;9.800;2023-07-20T11:44:16;1.55;;;0.65;;
9364;SDS011;4722;49.340;9.800;2023-07-20T11:46:42;2.58;;;0.50;;
9364;SDS011;4722;49.340;9.800;2023-07-20T11:49:09;8.40;;;1.05;;
9364;SDS011;4722;49.340;9.800;2023-07-20T11:51:35;1.45;;;0.50;;
9364;SDS011;4722;49.340;9.800;2023-07-20T11:54:02;0.85;;;0.40;;
9364;SDS011;4722;49.340;9.800;2023-07-20T11:56:29;2.42;;;0.50;;
9364;SDS011;4722;49.340;9.800;2023-07-20T11:58:56;1.30;;;0.30;;
9364;SDS011;4722;49.340;9.800;2023-07-20T12:01:25;0.70;;;0.38;;
9364;SDS011;4722;49.340;9.800;2023-07-20T12:03:56;1.73;;;0.45;;
9364;SDS011;4722;49.340;9.800;2023-07-20T12:06:23;2.40;;;0.52;;
9364;SDS011;4722;49.340;9.800;2023-07-20T12:08:50;1.38;;;0.30;;
9364;SDS011;4722;49.340;9.800;2023-07-20T12:11:30;3.17;;;0.50;;
9364;SDS011;4722;49.340;9.800;2023-07-20T12:13:57;0.65;;;0.35;;
9364;SDS011;4722;49.340;9.800;2023-07-20T12:16:26;2.20;;;0.52;;
9364;SDS011;4722;49.340;9.800;2023-07-20T12:18:59;1.15;;;0.40;;
9364;SDS011;4722;49.340;9.800;2023-07-20T12:21:25;1.00;;;0.40;;
9364;SDS011;4722;49.340;9.800;2023-07-20T12:23:52;1.42;;;0.80;;
9364;SDS011;4722;49.340;9.800;2023-07-20T12:26:18;1.00;;;0.45;;
9364;SDS011;4722;49.340;9.800;2023-07-20T12:28:47;1.42;;;0.30;;
9364;SDS011;4722;49.340;9.800;2023-07-20T12:31:14;1.10;;;0.30;;
9364;SDS011;4722;49.340;9.800;2023-07-20T12:33:39;1.33;;;0.50;;
9364;SDS011;4722;49.340;9.800;2023-07-20T12:36:05;0.93;;;0.38;;
9364;SDS011;4722;49.340;9.800;2023-07-20T12:38:31;2.60;;;0.80;;
9364;SDS011;4722;49.340;9.800;2023-07-20T12:40:57;0.52;;;0.40;;
9364;SDS011;4722;49.340;9.800;2023-07-20T12:43:23;1.98;;;0.50;;
9364;SDS011;4722;49.340;9.800;2023-07-20T12:45:49;1.30;;;0.55;;
9364;SDS011;4722;49.340;9.800;2023-07-20T12:48:15;6.20;;;0.32;;
9364;SDS011;4722;49.340;9.800;2023-07-20T12:50:41;1.20;;;0.50;;
9364;SDS011;4722;49.340;9.800;2023-07-20T12:53:07;0.95;;;0.40;;
9364;SDS011;4722;49.340;9.800;2023-07-20T12:55:33;1.50;;;0.50;;
9364;SDS011;4722;49.340;9.800;2023-07-20T12:57:59;2.65;;;0.55;;
9364;SDS011;4722;49.340;9.800;2023-07-20T13:00:25;4.53;;;0.40;;
9364;SDS011;4722;49.340;9.800;2023-07-20T13:02:51;0.73;;;0.35;;
9364;SDS011;4722;49.340;9.800;2023-07-20T13:05:17;3.47;;;0.32;;
9364;SDS011;4722;49.340;9.800;2023-07-20T13:07:42;1.90;;;0.40;;
9364;SDS011;4722;49.340;9.800;2023-07-20T13:10:08;1.55;;;0.47;;
9364;SDS011;4722;49.340;9.800;2023-07-20T13:12:35;1.83;;;0.60;;
9364;SDS011;4722;49.340;9.800;2023-07-20T13:15:02;0.57;;;0.25;;
9364;SDS011;4722;49.340;9.800;2023-07-20T13:17:30;3.10;;;0.50;;
9364;SDS011;4722;49.340;9.800;2023-07-20T13:19:56;2.65;;;0.50;;
9364;SDS011;4722;49.340;9.800;2023-07-20T13:22:22;1.20;;;0.52;;
9364;SDS011;4722;49.340;9.800;2023-07-20T13:24:48;3.08;;;0.50;;
9364;SDS011;4722;49.340;9.800;2023-07-20T13:27:15;2.72;;;0.90;;
9364;SDS011;4722;49.340;9.800;2023-07-20T13:29:41;2.13;;;0.30;;
9364;SDS011;4722;49.340;9.800;2023-07-20T13:32:07;1.77;;;0.45;;
9364;SDS011;4722;49.340;9.800;2023-07-20T13:34:33;1.63;;;0.60;;
9364;SDS011;4722;49.340;9.800;2023-07-20T13:36:59;2.60;;;0.40;;
9364;SDS011;4722;49.340;9.800;2023-07-20T13:39:25;1.40;;;0.52;;
9364;SDS011;4722;49.340;9.800;2023-07-20T13:41:52;0.57;;;0.20;;
9364;SDS011;4722;49.340;9.800;2023-07-20T13:44:19;1.70;;;0.43;;
9364;SDS011;4722;49.340;9.800;2023-07-20T13:46:45;1.40;;;0.45;;
9364;SDS011;4722;49.340;9.800;2023-07-20T13:49:11;1.05;;;0.25;;
9364;SDS011;4722;49.340;9.800;2023-07-20T13:51:38;3.47;;;0.40;;
9364;SDS011;4722;49.340;9.800;2023-07-20T13:54:05;4.03;;;0.43;;
9364;SDS011;4722;49.340;9.800;2023-07-20T13:56:31;0.90;;;0.30;;
9364;SDS011;4722;49.340;9.800;2023-07-20T13:58:57;1.30;;;0.43;;
9364;SDS011;4722;49.340;9.800;2023-07-20T14:01:22;1.73;;;0.40;;
9364;SDS011;4722;49.340;9.800;2023-07-20T14:03:49;1.30;;;0.43;;
9364;SDS011;4722;49.340;9.800;2023-07-20T14:06:15;2.22;;;0.30;;
9364;SDS011;4722;49.340;9.800;2023-07-20T14:08:42;1.05;;;0.47;;
9364;SDS011;4722;49.340;9.800;2023-07-20T14:11:11;1.63;;;0.50;;
9364;SDS011;4722;49.340;9.800;2023-07-20T14:13:37;2.33;;;0.50;;
9364;SDS011;4722;49.340;9.800;2023-07-20T14:16:03;1.70;;;0.40;;
9364;SDS011;4722;49.340;9.800;2023-07-20T14:18:29;0.77;;;0.40;;
9364;SDS011;4722;49.340;9.800;2023-07-20T14:20:55;7.55;;;0.40;;
9364;SDS011;4722;49.340;9.800;2023-07-20T14:23:20;2.47;;;0.68;;
9364;SDS011;4722;49.340;9.800;2023-07-20T14:25:46;2.80;;;0.60;;
9364;SDS011;4722;49.340;9.800;2023-07-20T14:28:12;1.05;;;0.40;;
9364;SDS011;4722;49.340;9.800;2023-07-20T14:30:38;1.48;;;0.40;;
9364;SDS011;4722;49.340;9.800;2023-07-20T14:33:03;1.25;;;0.60;;
9364;SDS011;4722;49.340;9.800;2023-07-20T14:35:29;1.75;;;0.70;;
9364;SDS011;4722;49.340;9.800;2023-07-20T14:37:55;0.70;;;0.20;;
9364;SDS011;4722;49.340;9.800;2023-07-20T14:40:21;1.13;;;0.57;;
9364;SDS011;4722;49.340;9.800;2023-07-20T14:42:47;0.40;;;0.10;;
9364;SDS011;4722;49.340;9.800;2023-07-20T14:45:12;1.15;;;0.40;;
9364;SDS011;4722;49.340;9.800;2023-07-20T14:47:38;2.42;;;0.32;;
9364;SDS011;4722;49.340;9.800;2023-07-20T14:50:05;3.20;;;0.40;;
9364;SDS011;4722;49.340;9.800;2023-07-20T14:52:31;1.23;;;0.50;;
9364;SDS011;4722;49.340;9.800;2023-07-20T14:54:57;0.82;;;0.45;;
9364;SDS011;4722;49.340;9.800;2023-07-20T14:57:22;0.70;;;0.30;;
9364;SDS011;4722;49.340;9.800;2023-07-20T14:59:49;1.02;;;0.43;;
9364;SDS011;4722;49.340;9.800;2023-07-20T15:02:15;1.55;;;0.50;;
9364;SDS011;4722;49.340;9.800;2023-07-20T15:04:47;2.90;;;0.70;;
9364;SDS011;4722;49.340;9.800;2023-07-20T15:07:15;4.35;;;0.30;;
9364;SDS011;4722;49.340;9.800;2023-07-20T15:09:42;1.45;;;0.40;;
9364;SDS011;4722;49.340;9.800;2023-07-20T15:12:08;1.80;;;0.63;;
9364;SDS011;4722;49.340;9.800;2023-07-20T15:14:34;1.58;;;0.40;;
9364;SDS011;4722;49.340;9.800;2023-07-20T15:17:00;0.82;;;0.40;;
9364;SDS011;4722;49.340;9.800;2023-07-20T15:19:26;0.77;;;0.50;;
9364;SDS011;4722;49.340;9.800;2023-07-20T15:21:52;1.92;;;0.60;;
9364;SDS011;4722;49.340;9.800;2023-07-20T15:24:18;1.35;;;0.40;;
9364;SDS011;4722;49.340;9.800;2023-07-20T15:26:44;1.27;;;0.40;;
9364;SDS011;4722;49.340;9.800;2023-07-20T15:29:09;3.33;;;0.43;;
9364;SDS011;4722;49.340;9.800;2023-07-20T15:31:35;1.27;;;0.38;;